Time;durP1;ratioP1;P1;durP2;ratioP2;P2;SDS_P1;SDS_P2;PMS_P1;PMS_P2;Temp;Humidity;BMP_temperature;BMP_pressure;BME280_temperature;BME280_humidity;BME280_pressure;Samples;Min_cycle;Max_cycle;Signal;HPM_P1;HPM_P2
2023/02/25 00:01:39;;;;;;;1.27;1.25;;;;;;;11.29;60.46;98225.13;4479158;31;33164;-82
2023/02/25 00:04:08;;;;;;;4.55;3.35;;;;;;;11.20;60.54;98227.59;4465883;31;33614;-82
2023/02/25 00:06:35;;;;;;;0.88;0.88;;;;;;;11.44;59.81;98220.56;4464099;31;33151;-81
2023/02/25 00:09:05;;;;;;;1.85;1.75;;;;;;;11.31;60.07;98219.75;4477985;31;32907;-82
2023/02/25 00:11:33;;;;;;;3.87;3.20;;;;;;;11.18;60.62;98221.56;4464089;31;33108;-81
2023/02/25 00:14:01;;;;;;;1.25;1.15;;;;;;;11.11;60.52;98221.19;4463154;31;32778;-81
2023/02/25 00:16:29;;;;;;;2.40;2.22;;;;;;;11.01;60.65;98218.34;4475084;31;33090;-81
2023/02/25 00:18:57;;;;;;;3.50;2.22;;;;;;;10.92;61.43;98215.47;4462659;32;33691;-81
2023/02/25 00:21:25;;;;;;;1.02;1.02;;;;;;;10.99;60.77;98209.66;4466157;31;35037;-80
2023/02/25 00:23:53;;;;;;;1.10;1.08;;;;;;;11.05;60.75;98207.53;4462690;31;33576;-81
2023/02/25 00:26:23;;;;;;;6.80;2.50;;;;;;;11.09;60.55;98199.28;4465992;31;35180;-81
2023/02/25 00:28:51;;;;;;;2.17;2.08;;;;;;;10.80;61.35;98198.72;4451829;31;31643;-80
2023/02/25 00:31:21;;;;;;;2.53;2.33;;;;;;;10.63;61.78;98201.69;4460765;31;32635;-81
2023/02/25 00:33:50;;;;;;;0.37;0.37;;;;;;;10.62;61.97;98186.81;4480373;31;33367;-81
2023/02/25 00:36:21;;;;;;;1.75;1.65;;;;;;;10.81;61.01;98184.56;4462684;31;32647;-80
2023/02/25 00:38:54;;;;;;;1.15;1.10;;;;;;;11.19;59.93;98178.34;4476882;31;33435;-81
2023/02/25 00:41:23;;;;;;;;;;;;;;;11.11;60.03;98181.56;4462917;31;33375;-81
2023/02/25 00:43:53;;;;;;;0.32;0.32;;;;;;;11.23;59.82;98171.91;4476911;31;35057;-81
2023/02/25 00:46:21;;;;;;;1.90;1.80;;;;;;;11.06;nan;98159.03;4449954;31;32295;-81
2023/02/25 00:48:50;;;;;;;1.15;1.15;;;;;;;11.24;59.37;98155.06;4464476;31;33101;-81
2023/02/25 00:51:21;;;;;;;2.50;2.30;;;;;;;10.65;61.02;98162.84;4463812;31;33459;-82
2023/02/25 00:53:51;;;;;;;2.65;2.10;;;;;;;11.19;59.67;98149.28;4476073;31;34034;-82
2023/02/25 00:56:19;;;;;;;0.70;0.65;;;;;;;11.24;59.35;98145.34;4467146;31;32270;-81
2023/02/25 00:58:49;;;;;;;2.05;1.87;;;;;;;11.17;59.44;98132.72;4478458;31;33325;-81
2023/02/25 01:01:28;;;;;;;0.10;0.10;;;;;;;11.31;59.10;98129.91;4464504;31;34018;-81
2023/02/25 01:03:56;;;;;;;5.07;2.62;;;;;;;11.52;58.15;98117.75;4448074;31;33198;-81
2023/02/25 01:06:26;;;;;;;3.15;1.67;;;;;;;11.35;58.87;98120.81;4464365;31;32389;-81
2023/02/25 01:08:54;;;;;;;2.40;2.17;;;;;;;11.35;58.80;98118.16;4463519;31;33982;-81
2023/02/25 01:11:27;;;;;;;2.35;2.15;;;;;;;11.35;58.57;98104.13;4464880;31;33527;-82
2023/02/25 01:13:57;;;;;;;2.58;1.80;;;;;;;11.56;58.16;98104.31;4478187;31;34204;-81
2023/02/25 01:16:27;;;;;;;2.05;1.87;;;;;;;11.26;58.98;98095.06;4461062;31;33190;-81
2023/02/25 01:18:59;;;;;;;2.53;2.33;;;;;;;11.40;58.25;98092.25;4464285;31;33540;-81
2023/02/25 01:21:31;;;;;;;0.95;0.95;;;;;;;11.15;59.19;98095.00;4462987;31;33050;-81
2023/02/25 01:24:04;;;;;;;4.90;2.83;;;;;;;11.41;57.89;98086.00;4475255;31;34764;-81
2023/02/25 01:26:34;;;;;;;1.65;1.55;;;;;;;11.47;58.12;98071.47;4474053;31;33420;-81
2023/02/25 01:29:06;;;;;;;2.80;2.60;;;;;;;11.29;58.22;98078.97;4465245;31;33288;-81
2023/02/25 01:31:35;;;;;;;7.82;2.25;;;;;;;11.06;59.12;98074.53;4461850;31;33793;-81
2023/02/25 01:34:06;;;;;;;0.82;0.47;;;;;;;11.22;58.54;98078.59;4464144;31;34057;-81
2023/02/25 01:36:34;;;;;;;1.52;1.42;;;;;;;11.58;57.56;98074.16;4456595;31;33578;-81
2023/02/25 01:39:02;;;;;;;3.37;2.08;;;;;;;11.32;58.04;98073.47;4463624;31;33879;-81
2023/02/25 01:41:32;;;;;;;2.72;2.47;;;;;;;11.60;57.18;98063.47;4463078;31;34584;-81
2023/02/25 01:44:05;;;;;;;4.35;0.88;;;;;;;11.34;57.84;98066.25;4450016;31;33226;-81
2023/02/25 01:46:33;;;;;;;2.83;2.25;;;;;;;11.62;57.18;98053.62;4451567;31;32457;-81
2023/02/25 01:49:02;;;;;;;0.85;0.85;;;;;;;11.32;58.13;98060.25;4464504;31;32264;-81
2023/02/25 01:51:31;;;;;;;1.60;1.50;;;;;;;11.38;57.74;98056.31;4436289;31;34013;-81
2023/02/25 01:54:01;;;;;;;3.00;1.67;;;;;;;11.18;58.30;98057.78;4474400;31;33829;-81
2023/02/25 01:56:29;;;;;;;0.40;0.40;;;;;;;11.24;58.20;98055.53;4462567;31;33646;-81
2023/02/25 01:58:57;;;;;;;1.35;1.25;;;;;;;10.48;60.38;98059.28;4468698;31;32965;-81
2023/02/25 02:01:29;;;;;;;1.48;1.37;;;;;;;10.91;59.35;98056.19;4447096;31;33758;-81
2023/02/25 02:03:56;;;;;;;0.82;0.82;;;;;;;10.75;59.90;98053.00;4465660;31;34845;-81
2023/02/25 02:06:31;;;;;;;0.93;0.93;;;;;;;10.95;59.35;98047.09;4467625;31;34512;-81
2023/02/25 02:09:00;;;;;;;0.45;0.45;;;;;;;10.87;59.50;98051.25;4476021;31;32983;-81
2023/02/25 02:11:29;;;;;;;5.37;4.00;;;;;;;10.95;59.04;98044.47;4466088;31;33785;-81
2023/02/25 02:14:02;;;;;;;0.55;0.55;;;;;;;10.96;58.83;98038.22;4453129;31;33267;-81
2023/02/25 02:16:44;;;;;;;1.00;0.98;;;;;;;10.71;59.82;98035.69;4465578;31;33917;-81
2023/02/25 02:19:30;;;;;;;2.17;1.15;;;;;;;10.77;59.70;98030.81;4467310;31;33336;-80
2023/02/25 02:22:23;;;;;;;1.67;1.52;;;;;;;11.23;58.13;98031.88;4478766;31;33949;-80
2023/02/25 02:25:02;;;;;;;0.10;0.10;;;;;;;10.92;59.05;98023.59;4464762;31;33827;-80
2023/02/25 02:27:42;;;;;;;3.92;1.52;;;;;;;10.96;58.73;98014.47;4476626;31;33696;-81
2023/02/25 02:30:29;;;;;;;0.32;0.32;;;;;;;11.08;58.42;98009.25;4474561;31;32960;-80
2023/02/25 02:33:27;;;;;;;2.72;1.75;;;;;;;11.01;58.66;98001.78;4478642;31;32611;-80
2023/02/25 02:36:08;;;;;;;5.18;2.17;;;;;;;10.84;59.17;97988.97;4473757;31;34080;-80
2023/02/25 02:38:46;;;;;;;1.42;1.33;;;;;;;10.54;60.22;97991.19;4465799;31;32882;-82
2023/02/25 02:41:17;;;;;;;1.65;1.55;;;;;;;10.65;60.13;97991.28;4459959;31;32310;-81
2023/02/25 02:44:03;;;;;;;1.52;0.98;;;;;;;10.45;60.41;97993.56;4464579;31;34093;-82
2023/02/25 02:46:50;;;;;;;1.62;1.52;;;;;;;10.14;61.62;98001.94;4466663;31;33734;-82
2023/02/25 02:49:32;;;;;;;1.00;1.00;;;;;;;10.26;61.30;97993.19;4464860;31;32249;-82
2023/02/25 02:52:07;;;;;;;0.70;0.70;;;;;;;10.09;61.87;97996.97;4463647;31;32645;-82
2023/02/25 02:54:36;;;;;;;0.47;0.47;;;;;;;10.10;61.54;97997.81;4446100;31;33316;-82
2023/02/25 02:57:08;;;;;;;2.67;1.65;;;;;;;10.25;61.20;97992.34;4464830;31;33948;-82
2023/02/25 02:59:41;;;;;;;1.83;1.73;;;;;;;10.37;60.97;97993.25;4466103;31;33619;-81
2023/02/25 03:02:30;;;;;;;3.95;1.70;;;;;;;10.12;61.67;97991.50;4463056;31;33083;-80
2023/02/25 03:05:03;;;;;;;1.33;0.88;;;;;;;9.96;62.43;97991.72;4462098;31;33934;-80
2023/02/25 03:07:34;;;;;;;1.20;0.98;;;;;;;10.13;61.77;97998.44;4464285;31;34458;-81
2023/02/25 03:10:04;;;;;;;9.45;3.22;;;;;;;10.35;61.10;98005.72;4463610;31;32666;-80
2023/02/25 03:12:32;;;;;;;2.25;1.73;;;;;;;10.19;61.44;98015.62;4464987;31;33089;-81
2023/02/25 03:15:00;;;;;;;1.17;1.17;;;;;;;10.39;61.02;98019.53;4450576;31;32667;-80
2023/02/25 03:17:32;;;;;;;0.73;0.73;;;;;;;10.36;61.06;98020.59;4491773;31;34461;-80
2023/02/25 03:20:09;;;;;;;;;;;;;;;10.57;60.50;98018.22;4464955;31;32480;-80
2023/02/25 03:22:40;;;;;;;0.75;0.75;;;;;;;10.37;61.00;98006.44;4466375;31;33538;-81
2023/02/25 03:25:08;;;;;;;0.10;0.10;;;;;;;10.36;61.08;98007.41;4451470;31;32806;-80
2023/02/25 03:27:38;;;;;;;2.30;2.03;;;;;;;10.42;60.71;98004.31;4477914;31;33867;-80
2023/02/25 03:30:11;;;;;;;1.48;1.37;;;;;;;10.32;60.97;98000.66;4465839;31;34494;-81
2023/02/25 03:32:42;;;;;;;2.03;1.33;;;;;;;10.54;60.32;98007.03;4479158;31;33992;-81
2023/02/25 03:35:11;;;;;;;6.70;2.37;;;;;;;10.71;59.92;98001.38;4465490;31;32942;-81
2023/02/25 03:37:40;;;;;;;7.47;2.80;;;;;;;10.60;nan;98001.31;4445524;31;33635;-80
2023/02/25 03:40:11;;;;;;;3.12;2.22;;;;;;;10.87;59.39;97998.44;4467756;31;34465;-80
2023/02/25 03:42:44;;;;;;;1.50;1.35;;;;;;;10.84;59.32;98003.97;4467755;31;33344;-80
2023/02/25 03:45:12;;;;;;;1.15;1.05;;;;;;;10.73;59.74;98002.13;4464096;31;34375;-80
2023/02/25 03:47:41;;;;;;;4.32;2.85;;;;;;;11.15;58.40;97997.25;4470792;31;33259;-80
2023/02/25 03:50:20;;;;;;;3.17;1.52;;;;;;;11.08;58.64;98007.44;4466158;31;32846;-81
2023/02/25 03:52:50;;;;;;;2.10;0.65;;;;;;;11.23;58.01;98000.16;4478770;31;33697;-80
2023/02/25 03:55:18;;;;;;;1.30;0.98;;;;;;;11.43;57.50;98012.72;4472141;31;34178;-81
2023/02/25 03:57:49;;;;;;;1.45;1.35;;;;;;;11.15;58.60;98010.47;4479706;31;33630;-81
2023/02/25 04:00:24;;;;;;;2.37;1.60;;;;;;;11.34;57.77;98007.28;4477276;31;34063;-81
2023/02/25 04:02:52;;;;;;;7.97;1.62;;;;;;;11.40;57.69;98006.84;4466170;31;32758;-81
2023/02/25 04:05:23;;;;;;;1.55;1.42;;;;;;;11.64;56.77;98004.13;4477079;31;33752;-81
2023/02/25 04:07:51;;;;;;;2.28;2.03;;;;;;;11.65;56.97;98000.53;4478204;31;34615;-81
2023/02/25 04:10:19;;;;;;;1.50;1.40;;;;;;;11.62;56.81;98001.59;4465437;31;34418;-81
2023/02/25 04:12:49;;;;;;;1.90;1.75;;;;;;;11.14;58.26;97999.06;4464018;31;34001;-81
2023/02/25 04:15:18;;;;;;;1.12;1.02;;;;;;;11.27;57.84;98007.75;4464967;31;33499;-81
2023/02/25 04:17:46;;;;;;;0.70;0.70;;;;;;;11.43;57.51;98007.44;4462461;31;33830;-81
2023/02/25 04:20:15;;;;;;;3.22;1.30;;;;;;;11.60;57.09;98010.59;4462722;31;34145;-80
2023/02/25 04:22:43;;;;;;;1.52;1.42;;;;;;;11.51;57.44;98009.50;4462778;31;33967;-81
2023/02/25 04:25:11;;;;;;;0.62;0.57;;;;;;;11.38;57.62;98012.22;4490106;31;33699;-80
2023/02/25 04:27:39;;;;;;;2.85;2.65;;;;;;;11.98;55.81;98028.84;4462552;31;33897;-81
2023/02/25 04:30:07;;;;;;;5.55;2.05;;;;;;;11.76;56.23;98026.97;4446794;31;32964;-81
2023/02/25 04:32:35;;;;;;;0.65;0.65;;;;;;;11.70;56.67;98022.16;4465851;31;33058;-81
2023/02/25 04:35:10;;;;;;;0.95;0.95;;;;;;;11.88;56.09;98023.41;4475434;31;33067;-81
2023/02/25 04:37:39;;;;;;;3.92;1.85;;;;;;;12.19;55.26;98026.31;4462384;31;34002;-81
2023/02/25 04:40:14;;;;;;;0.90;0.90;;;;;;;12.20;55.04;98046.50;4476436;31;33761;-81
2023/02/25 04:42:42;;;;;;;0.37;0.32;;;;;;;11.97;55.62;98059.75;4462016;31;33315;-80
2023/02/25 04:45:11;;;;;;;1.48;1.37;;;;;;;12.13;55.38;98058.56;4464060;31;33880;-81
2023/02/25 04:47:39;;;;;;;2.20;1.50;;;;;;;12.32;54.69;98064.09;4463411;31;33075;-82
2023/02/25 04:50:08;;;;;;;0.82;0.82;;;;;;;12.15;55.23;98061.91;4477609;31;32072;-81
2023/02/25 04:52:36;;;;;;;3.12;2.65;;;;;;;12.09;55.32;98067.69;4477369;31;33010;-81
2023/02/25 04:55:04;;;;;;;2.55;1.37;;;;;;;11.91;55.82;98060.19;4474950;31;33818;-81
2023/02/25 04:57:32;;;;;;;3.95;2.35;;;;;;;11.74;56.39;98060.62;4463896;31;32825;-82
2023/02/25 04:59:59;;;;;;;6.22;1.02;;;;;;;11.67;56.62;98072.63;4463445;31;33104;-82
2023/02/25 05:02:27;;;;;;;1.17;1.08;;;;;;;11.61;56.80;98088.94;4476271;31;32602;-81
2023/02/25 05:04:55;;;;;;;3.35;1.60;;;;;;;11.42;57.49;98092.97;4465753;31;34404;-81
2023/02/25 05:07:22;;;;;;;2.25;0.30;;;;;;;11.30;58.00;98096.53;4465745;31;34365;-81
2023/02/25 05:09:51;;;;;;;14.55;2.58;;;;;;;11.55;57.20;98090.25;4463156;31;34487;-81
2023/02/25 05:12:18;;;;;;;0.65;0.65;;;;;;;11.70;56.59;98104.97;4479099;31;33066;-81
2023/02/25 05:14:46;;;;;;;6.68;0.82;;;;;;;11.54;57.10;98105.28;4466780;31;35066;-82
2023/02/25 05:17:14;;;;;;;2.00;1.30;;;;;;;11.45;57.39;98105.97;4466445;31;34430;-81
2023/02/25 05:19:42;;;;;;;0.47;0.45;;;;;;;11.27;58.09;98112.59;4461182;31;33432;-81
2023/02/25 05:22:10;;;;;;;1.95;1.33;;;;;;;11.49;57.68;98111.88;4441765;32;33725;-81
2023/02/25 05:24:37;;;;;;;0.95;0.90;;;;;;;11.52;57.65;98111.63;4461967;31;33715;-81
2023/02/25 05:27:05;;;;;;;4.47;0.80;;;;;;;11.63;57.48;98116.09;4478536;31;34494;-81
2023/02/25 05:29:34;;;;;;;0.47;0.47;;;;;;;11.65;57.52;98122.12;4472146;32;33418;-81
2023/02/25 05:32:02;;;;;;;0.03;0.03;;;;;;;11.58;57.88;98123.53;4488114;31;33441;-81
2023/02/25 05:34:30;;;;;;;4.95;2.53;;;;;;;11.49;57.96;98122.44;4475931;31;32061;-81
2023/02/25 05:36:58;;;;;;;0.30;0.30;;;;;;;11.59;57.61;98130.53;4478317;31;34417;-81
2023/02/25 05:39:25;;;;;;;0.00;0.00;;;;;;;10.90;60.09;98130.25;4456461;31;33459;-80
2023/02/25 05:41:53;;;;;;;0.15;0.15;;;;;;;11.14;59.12;98127.66;4476408;31;34217;-80
2023/02/25 05:44:21;;;;;;;0.10;0.10;;;;;;;11.21;58.67;98134.19;4478421;31;34220;-81
2023/02/25 05:46:48;;;;;;;0.52;0.35;;;;;;;11.00;58.78;98129.47;4467153;31;34539;-80
2023/02/25 05:49:16;;;;;;;1.50;1.40;;;;;;;10.84;59.18;98133.34;4478313;31;33448;-80
2023/02/25 05:51:44;;;;;;;0.28;0.15;;;;;;;10.63;59.30;98149.72;4463245;31;33220;-81
2023/02/25 05:54:11;;;;;;;1.73;1.62;;;;;;;10.66;58.87;98143.41;4465198;31;34655;-80
2023/02/25 05:56:39;;;;;;;2.40;0.60;;;;;;;10.40;59.99;98153.16;4466342;31;34684;-80
2023/02/25 05:59:07;;;;;;;0.70;0.55;;;;;;;10.80;58.20;98156.47;4465770;31;32824;-80
2023/02/25 06:01:34;;;;;;;0.17;0.15;;;;;;;10.81;57.92;98155.50;4459947;31;32546;-80
2023/02/25 06:04:02;;;;;;;1.33;1.15;;;;;;;10.65;58.55;98162.84;4466076;31;33359;-80
2023/02/25 06:06:30;;;;;;;0.13;0.13;;;;;;;10.78;57.86;98174.22;4446584;31;33969;-80
2023/02/25 06:08:58;;;;;;;0.10;0.10;;;;;;;10.37;58.86;98179.75;4459593;31;33436;-80
2023/02/25 06:11:28;;;;;;;2.05;0.88;;;;;;;10.60;58.27;98188.72;4465375;31;33356;-80
2023/02/25 06:13:56;;;;;;;0.32;0.32;;;;;;;10.49;58.60;98198.22;4452793;32;34526;-80
2023/02/25 06:16:24;;;;;;;0.00;0.00;;;;;;;10.24;59.34;98206.94;4435537;32;32775;-80
2023/02/25 06:18:53;;;;;;;0.00;0.00;;;;;;;10.06;60.13;98213.41;4450947;32;34141;-81
2023/02/25 06:21:21;;;;;;;0.00;0.00;;;;;;;10.06;60.26;98212.56;4457637;32;34195;-80
2023/02/25 06:23:49;;;;;;;0.00;0.00;;;;;;;9.84;61.91;98221.94;4454511;31;35395;-80
2023/02/25 06:26:18;;;;;;;0.00;0.00;;;;;;;9.42;64.04;98221.12;4467515;31;33916;-80
2023/02/25 06:28:45;;;;;;;0.00;0.00;;;;;;;9.75;62.77;98219.88;4446269;31;32116;-79
2023/02/25 06:31:15;;;;;;;0.00;0.00;;;;;;;9.86;63.18;98221.81;4463195;31;33649;-80
2023/02/25 06:33:44;;;;;;;0.00;0.00;;;;;;;9.68;63.16;98223.84;4456012;31;32652;-80
2023/02/25 06:36:12;;;;;;;0.00;0.00;;;;;;;9.30;65.11;98215.78;4465975;31;33973;-80
2023/02/25 06:38:40;;;;;;;0.08;0.08;;;;;;;9.35;65.12;98206.69;4454455;31;34201;-81
2023/02/25 06:41:11;;;;;;;2.65;1.95;;;;;;;9.38;64.79;98227.53;4456388;31;35832;-80
2023/02/25 06:43:38;;;;;;;0.17;0.17;;;;;;;9.35;64.88;98219.84;4467492;31;32477;-81
2023/02/25 06:46:08;;;;;;;0.00;0.00;;;;;;;9.48;64.25;98215.47;4470942;31;35223;-81
2023/02/25 06:48:36;;;;;;;0.00;0.00;;;;;;;9.39;64.99;98223.94;4443959;31;32308;-81
2023/02/25 06:51:08;;;;;;;0.25;0.25;;;;;;;9.60;64.44;98232.28;4460975;31;33012;-81
2023/02/25 06:53:37;;;;;;;0.37;0.35;;;;;;;9.54;64.50;98231.81;4468867;32;33532;-81
2023/02/25 06:56:07;;;;;;;0.22;0.22;;;;;;;9.34;65.83;98247.09;4445484;31;34245;-81
2023/02/25 06:58:35;;;;;;;0.00;0.00;;;;;;;9.20;66.07;98250.59;4453937;31;32631;-81
2023/02/25 07:01:09;;;;;;;0.20;0.20;;;;;;;9.65;64.37;98253.06;4467986;31;31446;-81
2023/02/25 07:03:37;;;;;;;0.10;0.10;;;;;;;9.72;64.18;98254.34;4441657;31;33773;-81
2023/02/25 07:06:05;;;;;;;0.00;0.00;;;;;;;9.72;62.89;98251.72;4459960;32;33460;-81
2023/02/25 07:08:33;;;;;;;0.10;0.10;;;;;;;9.71;63.20;98257.94;4450234;32;33599;-81
2023/02/25 07:11:17;;;;;;;0.13;0.13;;;;;;;9.85;61.75;98249.97;4443556;32;33008;-81
2023/02/25 07:13:48;;;;;;;0.15;0.15;;;;;;;9.45;62.27;98264.88;4451844;32;32055;-81
2023/02/25 07:16:16;;;;;;;0.65;0.65;;;;;;;9.27;62.30;98274.78;4450404;31;33216;-80
2023/02/25 07:18:47;;;;;;;0.22;0.10;;;;;;;9.52;61.21;98276.72;4462084;31;35393;-80
2023/02/25 07:21:15;;;;;;;0.10;0.10;;;;;;;9.67;60.30;98280.16;4457493;32;33942;-81
2023/02/25 07:23:43;;;;;;;0.00;0.00;;;;;;;9.41;61.21;98282.66;4444088;32;32822;-81
2023/02/25 07:26:12;;;;;;;0.03;0.03;;;;;;;9.47;61.07;98279.63;4431221;32;34630;-81
2023/02/25 07:28:40;;;;;;;2.20;0.57;;;;;;;9.26;61.62;98264.31;4272611;32;32642;-80
2023/02/25 07:34:03;;;;;;;0.00;0.00;;;;;;;9.67;61.66;98253.78;4439117;31;231835;-80
2023/02/25 07:36:36;;;;;;;0.00;0.00;;;;;;;9.67;61.66;98253.78;4335869;32;32057;-80
2023/02/25 07:40:44;;;;;;;0.05;0.05;;;;;;;9.40;61.23;98240.59;4437197;31;99067;-80
2023/02/25 07:43:40;;;;;;;0.00;0.00;;;;;;;9.73;59.46;98246.34;4197445;33;32792;-80
2023/02/25 07:46:14;;;;;;;0.00;0.00;;;;;;;9.44;57.63;98290.34;4399827;31;130576;-80
2023/02/25 07:48:42;;;;;;;0.00;0.00;;;;;;;9.44;57.63;98290.34;4232545;32;32354;-80
2023/02/25 07:56:15;;;;;;;0.00;0.00;;;;;;;8.85;58.48;98265.97;4437091;31;97333;-81
2023/02/25 07:58:44;;;;;;;0.00;0.00;;;;;;;8.47;58.50;98278.81;4254385;32;33448;-80
2023/02/25 08:03:04;;;;;;;0.00;0.00;;;;;;;8.96;57.48;98281.09;4470649;31;99577;-82
2023/02/25 08:05:33;;;;;;;0.00;0.00;;;;;;;8.96;57.48;98281.09;4316005;32;33077;-82
2023/02/25 08:08:07;;;;;;;0.17;0.17;;;;;;;9.12;57.22;98286.28;4358739;31;94985;-80
2023/02/25 08:10:36;;;;;;;0.00;0.00;;;;;;;9.12;57.22;98286.28;4201179;32;32943;-81
2023/02/25 08:13:02;;;;;;;0.00;0.00;;;;;;;8.40;59.28;98275.69;4075409;34;32588;-80
2023/02/25 08:15:28;;;;;;;0.00;0.00;;;;;;;8.72;58.90;98283.44;4082465;34;32361;-79
2023/02/25 08:18:06;;;;;;;0.00;0.00;;;;;;;8.93;59.30;98279.50;4394941;32;102484;-79
2023/02/25 08:20:45;;;;;;;0.00;0.00;;;;;;;8.56;59.84;98290.56;4427198;31;94126;-79
2023/02/25 08:24:48;;;;;;;0.73;0.37;;;;;;;9.99;56.25;98286.81;4461070;31;113488;-80
2023/02/25 08:29:22;;;;;;;0.00;0.00;;;;;;;9.80;56.77;98291.59;4407775;31;95488;-79
2023/02/25 08:31:55;;;;;;;0.00;0.00;;;;;;;9.53;57.69;98310.00;4403987;31;86817;-79
2023/02/25 08:35:50;;;;;;;0.00;0.00;;;;;;;9.15;58.50;98331.69;4487668;31;215270;-79
2023/02/25 08:38:18;;;;;;;0.00;0.00;;;;;;;9.15;58.50;98331.69;4479636;31;33031;-79
2023/02/25 08:40:46;;;;;;;0.65;0.65;;;;;;;8.59;59.55;98324.56;4449618;32;33210;-79
2023/02/25 08:43:13;;;;;;;0.17;0.17;;;;;;;8.91;58.30;98326.13;4455660;31;33150;-79
2023/02/25 08:45:41;;;;;;;0.00;0.00;;;;;;;8.89;58.77;98328.00;4446620;32;32891;-79
2023/02/25 08:48:09;;;;;;;0.05;0.05;;;;;;;9.15;57.88;98317.66;4436541;32;32250;-81
2023/02/25 08:50:36;;;;;;;0.00;0.00;;;;;;;8.72;58.72;98321.12;4441102;32;33122;-79
2023/02/25 08:53:03;;;;;;;0.95;0.80;;;;;;;9.05;56.71;98317.37;4308734;32;31446;-79
2023/02/25 08:55:34;;;;;;;0.00;0.00;;;;;;;8.67;57.71;98328.44;4348949;32;32718;-79
2023/02/25 08:58:00;;;;;;;0.00;0.00;;;;;;;8.85;57.38;98334.41;4252542;33;32493;-79
2023/02/25 09:02:23;;;;;;;0.30;0.30;;;;;;;8.62;58.37;98337.56;4443709;31;111971;-80
2023/02/25 09:04:57;;;;;;;0.17;0.10;;;;;;;9.46;55.03;98317.47;4440044;32;795345;-80
2023/02/25 09:07:25;;;;;;;0.03;0.03;;;;;;;9.46;55.03;98317.47;4416558;32;32449;-79
2023/02/25 09:09:53;;;;;;;0.00;0.00;;;;;;;9.01;55.55;98329.03;4441511;32;33581;-80
2023/02/25 09:12:20;;;;;;;0.10;0.10;;;;;;;9.15;55.06;98321.16;4419184;32;35549;-79
2023/02/25 09:14:51;;;;;;;0.00;0.00;;;;;;;8.81;56.01;98317.09;4414936;32;32169;-80
2023/02/25 09:17:19;;;;;;;0.00;0.00;;;;;;;8.90;54.78;98337.59;4410831;32;33409;-79
2023/02/25 09:19:46;;;;;;;0.00;0.00;;;;;;;9.20;53.79;98349.84;4414018;32;32666;-80
2023/02/25 09:22:14;;;;;;;0.00;0.00;;;;;;;8.93;54.27;98355.84;4422778;32;34812;-79
2023/02/25 09:24:51;;;;;;;0.00;0.00;;;;;;;9.21;53.35;98362.09;4411617;32;34863;-80
2023/02/25 09:27:19;;;;;;;0.00;0.00;;;;;;;9.31;53.41;98381.66;4395177;32;33033;-80
2023/02/25 09:29:46;;;;;;;0.05;0.05;;;;;;;9.21;53.31;98377.87;4380318;32;34631;-80
2023/02/25 09:32:19;;;;;;;0.00;0.00;;;;;;;9.37;52.59;98357.56;4397769;32;33813;-80
2023/02/25 09:34:48;;;;;;;0.08;0.08;;;;;;;9.78;51.22;98340.09;4397338;32;33325;-80
2023/02/25 09:37:18;;;;;;;0.10;0.10;;;;;;;9.56;52.35;98357.25;4408792;32;33832;-80
2023/02/25 09:39:46;;;;;;;0.00;0.00;;;;;;;9.83;50.91;98338.87;4412590;32;33342;-79
2023/02/25 09:42:22;;;;;;;0.00;0.00;;;;;;;9.44;52.39;98321.97;4391930;32;33696;-79
2023/02/25 09:44:57;;;;;;;0.03;0.03;;;;;;;9.80;51.72;98309.22;4402439;32;33421;-80
2023/02/25 09:47:28;;;;;;;0.00;0.00;;;;;;;9.28;53.21;98336.22;4395010;32;32552;-80
2023/02/25 09:50:04;;;;;;;0.00;0.00;;;;;;;9.28;53.38;98347.59;4414150;32;32765;-80
2023/02/25 09:52:39;;;;;;;2.00;0.82;;;;;;;9.49;53.25;98369.13;4391499;32;33908;-80
2023/02/25 09:55:10;;;;;;;0.30;0.15;;;;;;;9.56;53.05;98353.78;4394401;32;32593;-80
2023/02/25 09:57:40;;;;;;;0.25;0.25;;;;;;;9.82;52.57;98350.34;4412256;32;32754;-80
2023/02/25 10:00:19;;;;;;;0.00;0.00;;;;;;;9.93;52.42;98349.66;4410744;32;33732;-79
2023/02/25 10:02:56;;;;;;;0.35;0.28;;;;;;;9.89;52.88;98354.28;4417340;32;34348;-79
2023/02/25 10:05:34;;;;;;;0.65;0.65;;;;;;;10.06;52.66;98361.09;4402987;32;34429;-80
2023/02/25 10:08:10;;;;;;;0.22;0.22;;;;;;;10.27;52.53;98348.34;4425888;32;33125;-80
2023/02/25 10:10:57;;;;;;;0.10;0.10;;;;;;;10.04;51.94;98338.44;4399398;32;33544;-80
2023/02/25 10:13:45;;;;;;;0.00;0.00;;;;;;;10.13;51.96;98345.75;4416929;32;32732;-79
2023/02/25 10:16:32;;;;;;;0.00;0.00;;;;;;;10.01;52.17;98348.22;4408492;32;33360;-80
2023/02/25 10:19:27;;;;;;;0.37;0.37;;;;;;;10.67;50.89;98353.63;4406821;32;32406;-80
2023/02/25 10:22:15;;;;;;;0.10;0.10;;;;;;;10.07;52.02;98377.78;4397361;32;33439;-80
2023/02/25 10:24:49;;;;;;;0.03;0.03;;;;;;;10.22;50.09;98372.38;4379056;32;33246;-79
2023/02/25 10:27:20;;;;;;;0.00;0.00;;;;;;;10.11;48.76;98374.00;4382769;32;34036;-80
2023/02/25 10:29:51;;;;;;;0.73;0.70;;;;;;;10.23;48.83;98352.94;4410271;32;35239;-80
2023/02/25 10:32:25;;;;;;;0.37;0.37;;;;;;;10.17;48.57;98347.25;4390708;32;33225;-80
2023/02/25 10:34:56;;;;;;;0.00;0.00;;;;;;;10.16;49.28;98361.34;4383703;32;33960;-80
2023/02/25 10:37:30;;;;;;;0.00;0.00;;;;;;;9.79;48.22;98361.09;4391462;32;33850;-80
2023/02/25 10:40:00;;;;;;;0.00;0.00;;;;;;;10.04;48.58;98373.56;4397176;32;32081;-79
2023/02/25 10:42:30;;;;;;;0.05;0.05;;;;;;;10.07;48.86;98346.16;4416143;32;33583;-81
2023/02/25 10:45:02;;;;;;;0.00;0.00;;;;;;;9.94;47.90;98354.00;4422587;32;33933;-80
2023/02/25 10:47:34;;;;;;;0.00;0.00;;;;;;;10.25;45.87;98361.66;4391996;32;33919;-80
2023/02/25 10:50:16;;;;;;;0.00;0.00;;;;;;;10.08;44.57;98374.22;4385006;32;31934;-80
2023/02/25 10:52:53;;;;;;;0.40;0.40;;;;;;;10.40;44.72;98354.53;4417143;32;32952;-79
2023/02/25 10:55:53;;;;;;;0.00;0.00;;;;;;;10.64;44.62;98356.47;4378437;32;34593;-79
2023/02/25 10:58:30;;;;;;;0.20;0.20;;;;;;;10.98;42.43;98355.88;4399525;32;33899;-79
2023/02/25 11:01:03;;;;;;;0.00;0.00;;;;;;;11.02;43.10;98373.22;4377720;32;33990;-79
2023/02/25 11:03:33;;;;;;;0.10;0.10;;;;;;;11.26;42.07;98369.84;4361930;32;33884;-79
2023/02/25 11:06:28;;;;;;;0.00;0.00;;;;;;;11.54;40.37;98363.47;4361509;32;32501;-79
2023/02/25 11:09:25;;;;;;;0.03;0.03;;;;;;;11.25;40.17;98357.56;4380943;32;32523;-79
2023/02/25 11:12:23;;;;;;;0.00;0.00;;;;;;;11.72;39.35;98350.72;4395487;32;32990;-79
2023/02/25 11:14:51;;;;;;;0.00;0.00;;;;;;;11.81;39.86;98355.37;4371319;32;33465;-79
2023/02/25 11:17:19;;;;;;;0.10;0.10;;;;;;;11.80;38.43;98343.94;4403909;32;34632;-80
2023/02/25 11:19:57;;;;;;;0.05;0.05;;;;;;;12.36;38.18;98330.22;4366663;32;33620;-79
2023/02/25 11:22:32;;;;;;;0.30;0.30;;;;;;;12.48;37.70;98297.50;4378096;32;33876;-80
2023/02/25 11:25:02;;;;;;;0.60;0.47;;;;;;;12.44;36.65;98295.25;4369369;32;33903;-79
2023/02/25 11:27:40;;;;;;;0.00;0.00;;;;;;;12.31;36.48;98284.72;4391482;32;33831;-79
2023/02/25 11:30:11;;;;;;;0.00;0.00;;;;;;;12.54;34.88;98260.00;4415770;32;33533;-79
2023/02/25 11:32:43;;;;;;;0.00;0.00;;;;;;;12.28;36.14;98282.28;4388252;32;31617;-79
2023/02/25 11:35:19;;;;;;;;;;;;;;;11.98;38.19;98294.19;4361636;32;34493;-80
2023/02/25 11:37:47;;;;;;;0.10;0.10;;;;;;;11.77;37.48;98291.31;4386234;32;32126;-79
2023/02/25 11:40:32;;;;;;;0.00;0.00;;;;;;;11.73;39.38;98304.84;4393924;32;33102;-79
2023/02/25 11:43:04;;;;;;;0.00;0.00;;;;;;;12.25;39.88;98316.94;4402404;32;32919;-79
2023/02/25 11:45:34;;;;;;;0.00;0.00;;;;;;;12.50;36.98;98324.72;4399805;32;34680;-80
2023/02/25 11:48:05;;;;;;;0.10;0.10;;;;;;;12.25;36.37;98328.38;4364785;32;33296;-79
2023/02/25 11:50:45;;;;;;;0.10;0.10;;;;;;;11.65;38.48;98323.06;4386766;32;34167;-79
2023/02/25 11:53:40;;;;;;;0.00;0.00;;;;;;;12.02;36.58;98327.41;4400229;32;33847;-79
2023/02/25 11:56:17;;;;;;;0.00;0.00;;;;;;;11.48;37.66;98311.03;4375788;32;34519;-79
2023/02/25 11:59:00;;;;;;;0.00;0.00;;;;;;;11.60;37.45;98306.69;4371946;32;34320;-79
2023/02/25 12:01:55;;;;;;;0.00;0.00;;;;;;;11.86;38.61;98304.81;4409873;32;33820;-79
2023/02/25 12:04:26;;;;;;;20.70;1.08;;;;;;;11.70;37.95;98310.34;4371093;32;32753;-80
2023/02/25 12:07:31;;;;;;;0.00;0.00;;;;;;;11.47;37.65;98299.63;4385977;32;34085;-80
2023/02/25 12:10:29;;;;;;;0.00;0.00;;;;;;;11.49;37.40;98271.28;4393729;32;33633;-80
2023/02/25 12:13:03;;;;;;;0.00;0.00;;;;;;;11.47;37.44;98282.91;4390735;32;34416;-81
2023/02/25 12:16:06;;;;;;;0.17;0.17;;;;;;;11.99;35.91;98266.78;4421355;32;33145;-82
2023/02/25 12:18:34;;;;;;;;;;;;;;;12.11;35.33;98277.44;4382928;32;33627;-82